createdAt,value
2018-10-11T00:00:51.345Z,31.37
2018-10-11T00:03:21.244Z,37.20
2018-10-11T00:05:50.117Z,31.70
2018-10-11T00:08:18.692Z,27.97
2018-10-11T00:10:51.756Z,31.03
2018-10-11T00:13:21.912Z,29.37
2018-10-11T00:15:52.691Z,30.50
2018-10-11T00:18:22.605Z,30.33
2018-10-11T00:20:52.093Z,31.97
2018-10-11T00:23:22.545Z,31.77
2018-10-11T00:25:51.989Z,28.13
2018-10-11T00:28:21.703Z,30.87
2018-10-11T00:30:50.897Z,31.80
2018-10-11T00:33:20.060Z,27.07
2018-10-11T00:35:48.676Z,28.37
2018-10-11T00:38:17.212Z,32.27
2018-10-11T00:40:45.720Z,29.90
2018-10-11T00:43:14.257Z,29.03
2018-10-11T00:45:42.777Z,26.97
2018-10-11T00:48:11.313Z,28.97
2018-10-11T00:50:39.816Z,33.23
2018-10-11T00:53:08.361Z,31.57
2018-10-11T00:55:36.928Z,34.20
2018-10-11T00:58:05.801Z,28.57
2018-10-11T01:00:34.317Z,29.87
2018-10-11T01:03:02.861Z,32.40
2018-10-11T01:05:31.367Z,28.60
2018-10-11T01:07:59.912Z,33.27
2018-10-11T01:10:28.413Z,29.87
2018-10-11T01:12:56.955Z,28.40
2018-10-11T01:15:25.481Z,28.23
2018-10-11T01:17:54.753Z,31.10
2018-10-11T01:20:23.325Z,32.67
2018-10-11T01:22:51.916Z,30.83
2018-10-11T01:25:20.625Z,36.20
2018-10-11T01:27:49.501Z,34.37
2018-10-11T01:30:18.160Z,32.60
2018-10-11T01:32:46.705Z,33.50
2018-10-11T01:35:15.217Z,34.80
2018-10-11T01:37:43.765Z,28.70
2018-10-11T01:40:12.304Z,30.37
2018-10-11T01:42:40.840Z,30.53
2018-10-11T01:45:10.048Z,27.73
2018-10-11T01:47:39.265Z,29.53
2018-10-11T01:50:07.808Z,25.30
2018-10-11T01:52:36.377Z,27.60
2018-10-11T01:55:04.941Z,24.43
2018-10-11T01:57:33.470Z,30.90
2018-10-11T02:00:02.010Z,25.80
2018-10-11T02:02:30.596Z,27.37
2018-10-11T02:04:59.138Z,26.00
2018-10-11T02:07:27.667Z,26.50
2018-10-11T02:09:56.201Z,30.57
2018-10-11T02:12:25.596Z,27.77
2018-10-11T02:14:54.199Z,24.57
2018-10-11T02:17:22.705Z,26.33
2018-10-11T02:19:51.252Z,26.80
2018-10-11T02:22:19.769Z,30.07
2018-10-11T02:24:48.320Z,28.00
2018-10-11T02:27:16.862Z,30.03
2018-10-11T02:29:45.465Z,31.03
2018-10-11T02:32:14.272Z,28.07
2018-10-11T02:34:42.824Z,28.47
2018-10-11T02:37:11.438Z,27.13
2018-10-11T02:39:40.025Z,31.77
2018-10-11T02:42:08.540Z,24.03
2018-10-11T02:44:37.085Z,24.07
2018-10-11T02:47:05.609Z,25.67
2018-10-11T02:49:34.152Z,23.77
2018-10-11T02:52:02.656Z,27.50
2018-10-11T02:54:31.234Z,31.57
2018-10-11T02:57:03.709Z,29.23
2018-10-11T02:59:35.897Z,25.10
2018-10-11T03:02:07.905Z,29.70
2018-10-11T03:04:37.149Z,28.27
2018-10-11T03:07:07.775Z,25.60
2018-10-11T03:09:36.330Z,27.17
2018-10-11T03:12:04.874Z,27.83
2018-10-11T03:14:33.442Z,26.97
2018-10-11T03:17:01.948Z,22.63
2018-10-11T03:19:30.501Z,23.93
2018-10-11T03:21:59.260Z,26.53
2018-10-11T03:24:27.816Z,30.47
2018-10-11T03:26:58.668Z,27.03
2018-10-11T03:29:27.705Z,25.60
2018-10-11T03:31:56.450Z,25.37
2018-10-11T03:34:25.681Z,23.73
2018-10-11T03:36:54.202Z,26.90
2018-10-11T03:39:22.758Z,24.53
2018-10-11T03:41:51.305Z,26.03
2018-10-11T03:44:19.864Z,25.43
2018-10-11T03:46:48.392Z,34.23
2018-10-11T03:49:16.917Z,27.60
2018-10-11T03:51:45.485Z,26.40
2018-10-11T03:54:14.009Z,30.63
2018-10-11T03:56:42.573Z,31.90
2018-10-11T03:59:11.172Z,26.00
2018-10-11T04:01:39.736Z,25.60
2018-10-11T04:04:08.281Z,29.87
2018-10-11T04:06:36.845Z,29.07
2018-10-11T04:09:06.721Z,27.37
2018-10-11T04:11:35.932Z,29.33
2018-10-11T04:14:04.466Z,29.17
2018-10-11T04:16:33.025Z,27.77
2018-10-11T04:19:01.548Z,24.40
2018-10-11T04:21:30.140Z,29.80
2018-10-11T04:23:58.666Z,30.07
2018-10-11T04:26:27.224Z,33.83
2018-10-11T04:28:55.741Z,35.73
2018-10-11T04:31:24.300Z,29.83
2018-10-11T04:33:52.817Z,32.70
2018-10-11T04:36:21.373Z,26.80
2018-10-11T04:38:49.997Z,26.00
2018-10-11T04:41:18.541Z,28.57
2018-10-11T04:43:47.053Z,31.33
2018-10-11T04:46:15.648Z,31.13
2018-10-11T04:48:44.169Z,26.40
2018-10-11T04:51:12.730Z,29.43
2018-10-11T04:53:41.320Z,31.43
2018-10-11T04:56:09.873Z,29.23
2018-10-11T04:58:38.461Z,30.50
2018-10-11T05:01:07.128Z,29.10
2018-10-11T05:03:35.644Z,28.57
2018-10-11T05:06:04.345Z,33.27
2018-10-11T05:08:32.856Z,36.33
2018-10-11T05:11:01.753Z,30.80
2018-10-11T05:13:38.857Z,27.93
2018-10-11T05:16:07.436Z,27.47
2018-10-11T05:18:36.753Z,27.50
2018-10-11T05:21:05.364Z,26.57
2018-10-11T05:23:33.884Z,31.63
2018-10-11T05:26:02.445Z,28.53
2018-10-11T05:28:30.956Z,30.53
2018-10-11T05:30:59.496Z,29.40
2018-10-11T05:33:28.605Z,29.07
2018-10-11T05:35:57.149Z,23.93
2018-10-11T05:38:25.904Z,20.17
2018-10-11T05:40:55.936Z,27.03
2018-10-11T05:43:24.579Z,31.50
2018-10-11T05:45:56.608Z,25.27
2018-10-11T05:48:26.469Z,26.50
2018-10-11T05:50:55.235Z,32.67
2018-10-11T05:53:24.109Z,28.33
2018-10-11T05:55:52.820Z,27.73
2018-10-11T05:58:21.744Z,23.70
2018-10-11T06:00:50.308Z,26.50
2018-10-11T06:03:19.090Z,27.87
2018-10-11T06:05:47.613Z,32.47
2018-10-11T06:08:16.168Z,35.30
2018-10-11T06:10:45.262Z,33.13
2018-10-11T06:13:14.102Z,30.97
2018-10-11T06:15:42.868Z,28.67
2018-10-11T06:18:12.124Z,24.07
2018-10-11T06:20:40.941Z,25.30
2018-10-11T06:23:09.511Z,34.43
2018-10-11T06:25:38.795Z,31.97
2018-10-11T06:28:07.754Z,24.70
2018-10-11T06:30:36.614Z,29.53
2018-10-11T06:33:05.188Z,35.43
2018-10-11T06:35:34.016Z,31.07
2018-10-11T06:38:03.393Z,34.67
2018-10-11T06:40:32.549Z,36.80
2018-10-11T06:43:01.120Z,40.10
2018-10-11T06:45:32.444Z,37.80
2018-10-11T06:48:03.681Z,39.43
2018-10-11T06:50:32.356Z,46.10
2018-10-11T06:53:01.448Z,39.70
2018-10-11T06:55:29.980Z,35.53
2018-10-11T06:57:58.549Z,38.20
2018-10-11T07:00:27.148Z,34.70
2018-10-11T07:02:55.772Z,37.07
2018-10-11T07:05:24.300Z,39.20
2018-10-11T07:07:52.882Z,36.33
2018-10-11T07:10:21.487Z,37.50
2018-10-11T07:12:50.057Z,40.70
2018-10-11T07:15:18.609Z,37.93
2018-10-11T07:17:47.178Z,36.87
2018-10-11T07:20:15.688Z,33.20
2018-10-11T07:22:44.276Z,37.97
2018-10-11T07:25:12.887Z,36.23
2018-10-11T07:27:41.637Z,40.67
2018-10-11T07:30:10.328Z,35.63
2018-10-11T07:32:38.901Z,37.83
2018-10-11T07:35:07.465Z,43.50
2018-10-11T07:37:36.264Z,34.10
2018-10-11T07:40:04.917Z,40.33
2018-10-11T07:42:41.926Z,40.27
2018-10-11T07:45:13.010Z,33.47
2018-10-11T07:47:49.411Z,34.23
2018-10-11T07:50:19.135Z,41.60
2018-10-11T07:52:51.015Z,34.57
2018-10-11T07:55:19.717Z,35.60
2018-10-11T07:57:48.272Z,33.73
2018-10-11T08:00:16.896Z,37.27
2018-10-11T08:02:46.184Z,37.73
2018-10-11T08:05:14.734Z,33.07
2018-10-11T08:07:43.338Z,34.07
2018-10-11T08:10:12.173Z,36.37
2018-10-11T08:12:40.693Z,34.63
2018-10-11T08:15:09.352Z,34.30
2018-10-11T08:17:38.242Z,36.23
2018-10-11T08:20:11.856Z,34.90
2018-10-11T08:22:40.973Z,31.77
2018-10-11T08:25:09.707Z,32.53
2018-10-11T08:27:38.379Z,35.47
2018-10-11T08:30:13.707Z,33.17
2018-10-11T08:32:42.545Z,33.70
2018-10-11T08:35:11.532Z,34.17
2018-10-11T08:37:40.194Z,32.80
2018-10-11T08:40:08.768Z,39.37
2018-10-11T08:42:45.405Z,35.23
2018-10-11T08:45:14.037Z,36.97
2018-10-11T08:47:42.632Z,34.23
2018-10-11T08:50:11.239Z,37.27
2018-10-11T08:52:39.805Z,32.27
2018-10-11T08:55:08.485Z,34.47
2018-10-11T08:57:37.292Z,31.60
2018-10-11T09:00:07.495Z,39.10
2018-10-11T09:02:36.084Z,40.87
2018-10-11T09:05:04.852Z,37.80
2018-10-11T09:07:38.982Z,31.80
2018-10-11T09:10:07.841Z,41.30
2018-10-11T09:12:36.384Z,34.47
2018-10-11T09:15:05.033Z,34.77
2018-10-11T09:17:33.560Z,39.87
2018-10-11T09:20:02.150Z,37.20
2018-10-11T09:22:30.719Z,38.47
2018-10-11T09:24:59.312Z,37.80
2018-10-11T09:27:27.837Z,43.20
2018-10-11T09:29:56.425Z,41.70
2018-10-11T09:32:24.967Z,36.93
2018-10-11T09:34:53.536Z,33.90
2018-10-11T09:37:22.068Z,39.70
2018-10-11T09:39:50.653Z,35.77
2018-10-11T09:42:19.196Z,33.13
2018-10-11T09:44:48.316Z,36.03
2018-10-11T09:47:18.456Z,35.90
2018-10-11T09:49:49.058Z,37.27
2018-10-11T09:52:18.575Z,32.37
2018-10-11T09:54:47.164Z,40.77
2018-10-11T09:57:36.429Z,34.27
2018-10-11T10:00:11.797Z,38.20
2018-10-11T10:02:40.368Z,35.43
2018-10-11T10:05:09.325Z,29.60
2018-10-11T10:07:37.912Z,37.70
2018-10-11T10:10:06.962Z,40.10
2018-10-11T10:12:37.040Z,30.00
2018-10-11T10:15:06.628Z,33.33
2018-10-11T10:17:37.036Z,35.23
2018-10-11T10:20:07.060Z,35.77
2018-10-11T10:22:35.672Z,35.53
2018-10-11T10:25:04.384Z,31.70
2018-10-11T10:27:33.472Z,38.73
2018-10-11T10:30:06.029Z,33.73
2018-10-11T10:32:34.574Z,28.77
2018-10-11T10:35:03.169Z,28.87
2018-10-11T10:37:31.696Z,29.20
2018-10-11T10:40:00.463Z,27.77
2018-10-11T10:42:31.153Z,27.33
2018-10-11T10:44:59.893Z,28.70
2018-10-11T10:47:28.545Z,27.23
2018-10-11T10:49:57.097Z,24.80
2018-10-11T10:52:25.832Z,25.53
2018-10-11T10:54:54.381Z,24.77
2018-10-11T10:57:23.018Z,23.13
2018-10-11T10:59:51.573Z,22.23
2018-10-11T11:02:20.137Z,23.33
2018-10-11T11:04:55.037Z,22.27
2018-10-11T11:07:23.673Z,25.90
2018-10-11T11:09:52.213Z,21.10
2018-10-11T11:12:20.769Z,17.83
2018-10-11T11:14:49.365Z,18.67
2018-10-11T11:17:18.080Z,17.77
2018-10-11T11:19:46.620Z,18.10
2018-10-11T11:22:15.169Z,18.40
2018-10-11T11:24:47.965Z,18.80
2018-10-11T11:27:23.741Z,18.60
2018-10-11T11:29:56.599Z,20.67
2018-10-11T11:32:27.296Z,18.57
2018-10-11T11:34:57.504Z,17.80
2018-10-11T11:37:27.465Z,17.23
2018-10-11T11:40:00.348Z,17.40
2018-10-11T11:42:31.713Z,22.83
2018-10-11T11:45:00.442Z,17.77
2018-10-11T11:47:33.747Z,18.00
2018-10-11T11:50:05.224Z,17.63
2018-10-11T11:52:38.939Z,18.80
2018-10-11T11:55:09.718Z,21.30
2018-10-11T11:57:43.488Z,17.53
2018-10-11T12:00:15.046Z,18.70
2018-10-11T12:02:44.452Z,18.83
2018-10-11T12:05:16.788Z,18.70
2018-10-11T12:07:45.885Z,16.60
2018-10-11T12:10:14.460Z,17.37
2018-10-11T12:13:05.523Z,18.20
2018-10-11T12:15:38.515Z,15.27
2018-10-11T12:18:09.639Z,14.93
2018-10-11T12:20:41.662Z,13.47
2018-10-11T12:23:14.511Z,11.93
2018-10-11T12:25:44.500Z,17.13
2018-10-11T12:28:15.201Z,14.63
2018-10-11T12:30:48.717Z,14.70
2018-10-11T12:33:18.853Z,14.13
2018-10-11T12:35:47.458Z,10.57
2018-10-11T12:38:16.902Z,11.37
2018-10-11T12:40:46.176Z,10.77
2018-10-11T12:43:14.768Z,9.73
2018-10-11T12:45:44.685Z,10.00
2018-10-11T12:48:16.413Z,9.70
2018-10-11T12:50:46.514Z,10.23
2018-10-11T12:53:18.596Z,11.50
2018-10-11T12:55:48.086Z,9.87
2018-10-11T12:58:23.084Z,9.77
2018-10-11T13:00:56.177Z,9.03
2018-10-11T13:03:28.325Z,7.47
2018-10-11T13:05:56.842Z,6.97
2018-10-11T13:08:33.192Z,6.97
2018-10-11T13:11:07.342Z,7.13
2018-10-11T13:13:47.861Z,7.23
2018-10-11T13:16:18.197Z,6.97
2018-10-11T13:18:52.930Z,7.03
2018-10-11T13:21:35.607Z,7.30
2018-10-11T13:24:09.520Z,6.80
2018-10-11T13:26:39.718Z,8.20
2018-10-11T13:29:23.952Z,7.03
2018-10-11T13:31:53.420Z,7.50
2018-10-11T13:34:27.525Z,6.97
2018-10-11T13:36:59.244Z,6.50
2018-10-11T13:39:31.837Z,7.67
2018-10-11T13:42:05.720Z,7.53
2018-10-11T13:44:40.428Z,6.00
2018-10-11T13:47:13.030Z,6.33
2018-10-11T13:49:44.246Z,5.10
2018-10-11T13:52:22.513Z,6.20
2018-10-11T13:54:53.125Z,5.67
2018-10-11T13:57:26.846Z,5.70
2018-10-11T13:59:55.521Z,6.10
2018-10-11T14:02:25.905Z,6.33
2018-10-11T14:05:01.854Z,6.00
2018-10-11T14:07:30.564Z,5.60
2018-10-11T14:09:59.100Z,5.77
2018-10-11T14:12:27.618Z,5.00
2018-10-11T14:14:56.184Z,5.80
2018-10-11T14:17:24.689Z,6.10
2018-10-11T14:19:53.250Z,5.50
2018-10-11T14:22:21.755Z,5.43
2018-10-11T14:24:50.306Z,6.20
2018-10-11T14:27:18.800Z,6.37
2018-10-11T14:29:47.333Z,5.00
2018-10-11T14:32:15.844Z,5.90
2018-10-11T14:34:44.425Z,5.47
2018-10-11T14:37:13.157Z,5.13
2018-10-11T14:39:41.549Z,5.63
2018-10-11T14:42:10.271Z,6.17
2018-10-11T14:44:40.868Z,5.93
2018-10-11T14:47:09.389Z,5.60
2018-10-11T14:49:39.922Z,5.23
2018-10-11T14:52:08.620Z,5.53
2018-10-11T14:54:37.183Z,6.43
2018-10-11T14:57:08.374Z,5.67
2018-10-11T14:59:36.975Z,5.30
2018-10-11T15:02:05.436Z,5.13
2018-10-11T15:04:33.980Z,5.30
2018-10-11T15:07:06.135Z,5.03
2018-10-11T15:09:34.736Z,5.13
2018-10-11T15:12:03.278Z,4.60
2018-10-11T15:14:31.872Z,4.90
2018-10-11T15:17:00.903Z,4.93
2018-10-11T15:19:29.457Z,4.87
2018-10-11T15:21:58.526Z,4.80
2018-10-11T15:24:27.085Z,6.00
2018-10-11T15:26:56.636Z,5.77
2018-10-11T15:29:25.267Z,5.63
2018-10-11T15:31:53.763Z,6.90
2018-10-11T15:34:22.735Z,7.83
2018-10-11T15:36:51.396Z,7.63
2018-10-11T15:39:20.301Z,10.43
2018-10-11T15:41:49.709Z,9.80
2018-10-11T15:44:18.393Z,11.50
2018-10-11T15:46:47.255Z,13.10
2018-10-11T15:49:22.553Z,14.47
2018-10-11T15:51:51.372Z,18.50
2018-10-11T15:54:20.172Z,19.03
2018-10-11T15:56:50.840Z,20.90
2018-10-11T15:59:19.743Z,23.60
2018-10-11T16:01:48.454Z,21.23
2018-10-11T16:04:17.197Z,18.80
2018-10-11T16:06:46.733Z,22.67
2018-10-11T16:09:16.939Z,24.90
2018-10-11T16:11:46.825Z,20.70
2018-10-11T16:14:15.504Z,14.13
2018-10-11T16:16:44.200Z,14.03
2018-10-11T16:19:12.790Z,15.87
2018-10-11T16:21:42.026Z,12.13
2018-10-11T16:24:11.029Z,8.50
2018-10-11T16:26:39.618Z,7.73
2018-10-11T16:29:08.436Z,6.13
2018-10-11T16:31:36.982Z,5.63
2018-10-11T16:34:05.626Z,5.47
2018-10-11T16:36:37.162Z,5.83
2018-10-11T16:39:08.093Z,5.60
2018-10-11T16:41:36.753Z,5.70
2018-10-11T16:44:05.277Z,5.80
2018-10-11T16:46:34.356Z,6.83
2018-10-11T16:49:02.888Z,6.20
2018-10-11T16:51:31.548Z,6.67
2018-10-11T16:54:00.324Z,6.63
2018-10-11T16:56:28.920Z,6.83
2018-10-11T16:58:57.709Z,7.17
2018-10-11T17:01:26.221Z,6.90
2018-10-11T17:03:54.752Z,6.60
2018-10-11T17:06:25.717Z,7.00
2018-10-11T17:08:54.217Z,7.30
2018-10-11T17:11:22.772Z,7.70
2018-10-11T17:13:51.301Z,7.27
2018-10-11T17:16:20.001Z,7.43
2018-10-11T17:18:48.567Z,8.23
2018-10-11T17:21:17.092Z,7.10
2018-10-11T17:23:45.601Z,7.23
2018-10-11T17:26:14.142Z,7.90
2018-10-11T17:28:42.651Z,8.20
2018-10-11T17:31:11.189Z,7.83
2018-10-11T17:33:39.687Z,8.60
2018-10-11T17:36:08.224Z,8.00
2018-10-11T17:38:42.732Z,9.70
2018-10-11T17:41:11.517Z,8.73
2018-10-11T17:43:43.618Z,10.00
2018-10-11T17:46:12.204Z,9.97
2018-10-11T17:48:40.710Z,8.73
2018-10-11T17:51:09.265Z,9.70
2018-10-11T17:53:37.769Z,8.77
2018-10-11T17:56:06.302Z,9.13
2018-10-11T17:58:34.860Z,9.70
2018-10-11T18:01:03.380Z,9.40
2018-10-11T18:03:31.934Z,9.50
2018-10-11T18:06:00.746Z,9.40
2018-10-11T18:08:29.297Z,10.10
2018-10-11T18:10:57.798Z,8.93
2018-10-11T18:13:26.341Z,9.57
2018-10-11T18:15:54.966Z,9.63
2018-10-11T18:18:23.508Z,8.80
2018-10-11T18:20:52.013Z,9.03
2018-10-11T18:23:20.542Z,10.93
2018-10-11T18:25:49.053Z,10.30
2018-10-11T18:28:17.594Z,10.27
2018-10-11T18:30:46.101Z,10.80
2018-10-11T18:33:14.640Z,10.83
2018-10-11T18:35:43.218Z,10.53
2018-10-11T18:38:12.017Z,11.20
2018-10-11T18:40:40.542Z,12.23
2018-10-11T18:43:10.585Z,16.17
2018-10-11T18:45:39.148Z,27.63
2018-10-11T18:48:13.940Z,23.17
2018-10-11T18:50:47.609Z,25.03
2018-10-11T18:53:19.792Z,19.60
2018-10-11T18:55:51.271Z,13.67
2018-10-11T18:58:20.993Z,15.33
2018-10-11T19:00:50.825Z,15.03
2018-10-11T19:03:20.621Z,14.67
2018-10-11T19:05:50.699Z,14.97
2018-10-11T19:08:20.565Z,15.73
2018-10-11T19:10:51.909Z,18.97
2018-10-11T19:13:21.720Z,17.00
2018-10-11T19:15:51.778Z,25.53
2018-10-11T19:18:21.493Z,16.10
2018-10-11T19:20:51.604Z,15.33
2018-10-11T19:23:27.235Z,15.93
2018-10-11T19:25:57.733Z,13.87
2018-10-11T19:28:31.467Z,15.53
2018-10-11T19:31:00.851Z,21.53
2018-10-11T19:33:30.816Z,16.80
2018-10-11T19:36:09.725Z,16.03
2018-10-11T19:38:44.335Z,15.97
2018-10-11T19:41:18.987Z,18.13
2018-10-11T19:43:49.617Z,17.97
2018-10-11T19:46:20.197Z,18.20
2018-10-11T19:48:49.864Z,18.80
2018-10-11T19:51:21.124Z,18.77
2018-10-11T19:53:55.483Z,18.83
2018-10-11T19:56:25.407Z,17.80
2018-10-11T19:58:57.472Z,18.40
2018-10-11T20:01:31.022Z,18.87
2018-10-11T20:04:07.153Z,18.33
2018-10-11T20:06:38.037Z,18.97
2018-10-11T20:09:10.613Z,17.57
2018-10-11T20:11:42.238Z,19.37
2018-10-11T20:14:13.357Z,17.73
2018-10-11T20:16:41.882Z,18.30
2018-10-11T20:19:10.578Z,18.03
2018-10-11T20:21:39.811Z,19.87
2018-10-11T20:24:12.969Z,18.63
2018-10-11T20:26:49.062Z,18.57
2018-10-11T20:29:19.333Z,16.13
2018-10-11T20:31:49.487Z,17.97
2018-10-11T20:34:23.424Z,17.07
2018-10-11T20:36:56.881Z,17.13
2018-10-11T20:39:25.501Z,15.00
2018-10-11T20:41:55.648Z,14.23
2018-10-11T20:44:24.271Z,13.97
2018-10-11T20:46:53.436Z,13.60
2018-10-11T20:49:22.291Z,13.60
2018-10-11T20:51:53.243Z,14.93
2018-10-11T20:54:22.157Z,13.87
2018-10-11T20:56:52.355Z,13.83
2018-10-11T20:59:21.637Z,14.03
2018-10-11T21:01:54.622Z,13.53
2018-10-11T21:04:24.230Z,14.93
2018-10-11T21:06:53.202Z,15.43
2018-10-11T21:09:27.704Z,16.03
2018-10-11T21:12:00.213Z,14.13
2018-10-11T21:14:30.029Z,16.20
2018-10-11T21:16:59.726Z,16.17
2018-10-11T21:19:29.041Z,15.57
2018-10-11T21:21:57.684Z,16.63
2018-10-11T21:24:27.441Z,14.73
2018-10-11T21:27:01.728Z,15.97
2018-10-11T21:29:30.500Z,16.80
2018-10-11T21:32:00.068Z,16.90
2018-10-11T21:34:29.798Z,15.23
2018-10-11T21:36:59.207Z,14.47
2018-10-11T21:39:28.204Z,15.97
2018-10-11T21:41:56.955Z,18.13
2018-10-11T21:44:27.158Z,15.37
2018-10-11T21:46:57.129Z,16.83
2018-10-11T21:49:26.177Z,17.67
2018-10-11T21:51:54.702Z,18.37
2018-10-11T21:54:25.239Z,19.07
2018-10-11T21:56:55.909Z,16.57
2018-10-11T21:59:24.864Z,18.47
2018-10-11T22:01:54.529Z,19.83
2018-10-11T22:04:24.239Z,17.27
2018-10-11T22:06:53.900Z,17.37
2018-10-11T22:09:23.257Z,18.10
2018-10-11T22:11:52.067Z,15.83
2018-10-11T22:14:21.679Z,17.30
2018-10-11T22:16:51.676Z,19.60
2018-10-11T22:19:20.356Z,20.10
2018-10-11T22:21:49.493Z,21.17
2018-10-11T22:24:18.605Z,17.60
2018-10-11T22:26:47.547Z,18.17
2018-10-11T22:29:17.343Z,18.90
2018-10-11T22:31:46.596Z,19.23
2018-10-11T22:34:15.156Z,20.47
2018-10-11T22:36:44.188Z,20.00
2018-10-11T22:39:13.660Z,21.00
2018-10-11T22:41:42.704Z,18.20
2018-10-11T22:44:12.698Z,20.47
2018-10-11T22:46:42.780Z,20.57
2018-10-11T22:49:11.561Z,20.83
2018-10-11T22:51:40.749Z,25.17
2018-10-11T22:54:11.769Z,23.80
2018-10-11T22:56:40.424Z,22.73
2018-10-11T22:59:09.600Z,20.53
2018-10-11T23:01:38.817Z,22.50
2018-10-11T23:04:08.293Z,19.43
2018-10-11T23:06:37.766Z,20.07
2018-10-11T23:09:09.324Z,22.57
2018-10-11T23:11:39.729Z,20.37
2018-10-11T23:14:09.516Z,25.90
2018-10-11T23:16:38.055Z,23.53
2018-10-11T23:19:06.613Z,20.67
2018-10-11T23:21:35.156Z,24.03
2018-10-11T23:24:03.692Z,20.53
2018-10-11T23:26:32.244Z,22.13
2018-10-11T23:29:00.748Z,20.67
2018-10-11T23:31:29.288Z,19.20
2018-10-11T23:33:57.787Z,20.97
2018-10-11T23:36:26.344Z,22.37
2018-10-11T23:38:54.868Z,20.60
2018-10-11T23:41:23.409Z,24.13
2018-10-11T23:43:51.920Z,24.37
2018-10-11T23:46:20.480Z,21.63
2018-10-11T23:48:48.988Z,23.20
2018-10-11T23:51:17.517Z,20.97
2018-10-11T23:53:46.042Z,22.90
2018-10-11T23:56:14.921Z,21.07
2018-10-11T23:58:43.433Z,20.43
